Time;durP1;ratioP1;P1;durP2;ratioP2;P2;SDS_P1;SDS_P2;PMS_P1;PMS_P2;Temp;Humidity;BMP_temperature;BMP_pressure;BME280_temperature;BME280_humidity;BME280_pressure;Samples;Min_cycle;Max_cycle;Signal;HPM_P1;HPM_P2
2023/02/02 00:00:33;;;;;;;38.42;4.32;;;;;;;7.81;100.00;102130.56;5032474;28;20496;-40
2023/02/02 00:02:58;;;;;;;42.05;4.90;;;;;;;7.77;100.00;102134.50;5032844;28;20033;-40
2023/02/02 00:05:24;;;;;;;48.80;4.78;;;;;;;7.76;100.00;102130.13;5032049;28;20087;-41
2023/02/02 00:07:50;;;;;;;34.60;4.18;;;;;;;7.75;100.00;102126.59;5021818;28;20046;-39
2023/02/02 00:10:16;;;;;;;34.22;3.70;;;;;;;7.79;100.00;102124.50;5014136;28;20032;-40
2023/02/02 00:12:41;;;;;;;42.85;4.93;;;;;;;7.73;100.00;102120.50;5022009;28;20029;-40
2023/02/02 00:15:07;;;;;;;31.52;4.05;;;;;;;7.76;100.00;102133.63;5025391;28;20018;-39
2023/02/02 00:17:32;;;;;;;52.13;4.95;;;;;;;7.75;100.00;102131.13;5020662;28;20072;-41
2023/02/02 00:19:57;;;;;;;39.20;4.30;;;;;;;7.77;100.00;102134.50;5032363;28;20028;-40
2023/02/02 00:22:23;;;;;;;55.83;5.28;;;;;;;7.75;100.00;102131.13;5030359;28;20120;-40
2023/02/02 00:24:48;;;;;;;45.42;4.93;;;;;;;7.78;100.00;102136.19;5029387;28;20135;-40
2023/02/02 00:27:13;;;;;;;43.92;3.63;;;;;;;7.78;100.00;102138.88;5012916;28;20034;-40
2023/02/02 00:29:39;;;;;;;40.58;4.75;;;;;;;7.77;100.00;102137.19;5021821;28;20032;-41
2023/02/02 00:32:04;;;;;;;32.20;3.88;;;;;;;7.77;100.00;102138.03;5026885;28;20049;-41
2023/02/02 00:34:30;;;;;;;47.25;4.50;;;;;;;7.78;100.00;102152.28;5030248;28;20116;-40
2023/02/02 00:36:55;;;;;;;52.15;5.38;;;;;;;7.84;100.00;102143.69;5026553;28;20503;-40
2023/02/02 00:39:25;;;;;;;46.50;5.07;;;;;;;7.84;100.00;102152.59;5019826;28;20040;-41
2023/02/02 00:41:50;;;;;;;49.50;4.90;;;;;;;7.80;100.00;102142.28;5026948;28;20044;-40
2023/02/02 00:47:00;;;;;;;46.15;5.40;;;;;;;7.78;100.00;102152.28;5012753;28;20053;-39
2023/02/02 00:49:25;;;;;;;44.13;4.90;;;;;;;7.79;100.00;102145.94;5025090;28;20030;-40
2023/02/02 00:51:50;;;;;;;46.72;4.45;;;;;;;7.79;100.00;102149.44;5013133;28;20044;-39
2023/02/02 00:54:16;;;;;;;32.67;3.85;;;;;;;7.79;100.00;102143.25;5026946;28;21118;-39
2023/02/02 00:56:42;;;;;;;44.97;4.43;;;;;;;7.79;100.00;102141.41;5017340;28;20034;-39
2023/02/02 00:59:07;;;;;;;36.40;4.20;;;;;;;7.79;100.00;102154.81;5024366;28;20018;-40
2023/02/02 01:01:32;;;;;;;39.90;5.10;;;;;;;7.82;100.00;102146.53;5015119;28;20038;-40
2023/02/02 01:03:58;;;;;;;48.85;5.78;;;;;;;7.81;100.00;102149.34;5026427;28;20156;-40
2023/02/02 01:06:24;;;;;;;43.45;4.68;;;;;;;7.77;100.00;102138.03;5033156;28;20025;-40
2023/02/02 01:08:49;;;;;;;43.30;4.57;;;;;;;7.78;100.00;102149.59;5027543;28;20469;-40
2023/02/02 01:11:15;;;;;;;58.22;5.82;;;;;;;7.79;100.00;102138.72;5019182;28;20440;-43
2023/02/02 01:13:40;;;;;;;45.38;4.43;;;;;;;7.80;100.00;102144.97;5023104;28;20064;-39
2023/02/02 01:16:06;;;;;;;36.63;4.30;;;;;;;7.76;100.00;102149.72;5012694;28;20034;-40
2023/02/02 01:18:31;;;;;;;48.97;5.07;;;;;;;7.74;100.00;102145.47;5020604;28;20026;-40
2023/02/02 01:21:03;;;;;;;36.28;4.88;;;;;;;7.73;100.00;102133.06;5030911;28;20415;-40
2023/02/02 01:23:28;;;;;;;47.13;4.90;;;;;;;7.73;100.00;102130.38;5031240;28;20054;-41
2023/02/02 01:25:57;;;;;;;37.17;4.47;;;;;;;7.72;100.00;102134.06;5031778;28;20032;-40
2023/02/02 01:28:24;;;;;;;35.80;4.25;;;;;;;7.69;100.00;102136.00;5030789;28;20469;-40
2023/02/02 01:30:49;;;;;;;37.95;4.60;;;;;;;7.71;100.00;102138.53;5031537;28;20026;-41
2023/02/02 01:33:16;;;;;;;50.55;4.43;;;;;;;7.72;100.00;102142.09;5031115;28;20068;-39
2023/02/02 01:35:49;;;;;;;32.75;4.05;;;;;;;7.70;100.00;102140.38;5031497;28;20037;-39
2023/02/02 01:38:15;;;;;;;40.22;4.82;;;;;;;7.72;100.00;102144.78;5025281;28;20026;-40
2023/02/02 01:40:52;;;;;;;44.28;5.22;;;;;;;7.74;100.00;102145.47;5021141;28;20038;-40
2023/02/02 01:43:48;;;;;;;45.08;4.78;;;;;;;7.72;100.00;102158.19;5013950;28;20046;-40
2023/02/02 01:46:15;;;;;;;35.03;5.13;;;;;;;7.72;100.00;102155.50;5010961;28;20033;-41
2023/02/02 01:48:44;;;;;;;46.40;4.90;;;;;;;7.72;100.00;102155.50;5015889;28;20030;-43
2023/02/02 01:51:22;;;;;;;49.97;5.97;;;;;;;7.67;100.00;102146.00;5017303;28;20376;-42
2023/02/02 01:53:48;;;;;;;43.58;4.40;;;;;;;7.71;100.00;102151.94;5016984;28;20041;-41
2023/02/02 01:56:18;;;;;;;49.75;5.57;;;;;;;7.71;100.00;102135.88;5013997;28;20029;-40
2023/02/02 01:58:43;;;;;;;33.05;4.28;;;;;;;7.70;100.00;102134.19;5016282;28;20054;-40
2023/02/02 02:01:09;;;;;;;50.20;5.65;;;;;;;7.70;100.00;102143.06;5032962;28;20030;-40
2023/02/02 02:03:36;;;;;;;35.47;4.55;;;;;;;7.73;100.00;102146.47;5032697;28;20445;-40
2023/02/02 02:06:04;;;;;;;40.13;5.13;;;;;;;7.73;100.00;102150.00;5029407;28;20044;-41
2023/02/02 02:08:36;;;;;;;40.15;4.75;;;;;;;7.73;100.00;102149.16;5027684;28;20049;-41
2023/02/02 02:11:01;;;;;;;41.67;4.25;;;;;;;7.73;100.00;102151.81;5013524;28;20036;-41
2023/02/02 02:16:45;;;;;;;44.63;5.15;;;;;;;7.70;100.00;102155.63;5013567;28;20060;-40
2023/02/02 02:26:32;;;;;;;43.63;4.65;;;;;;;7.69;100.00;102149.41;5017325;28;20029;-41
2023/02/02 02:28:56;;;;;;;54.35;4.82;;;;;;;7.72;100.00;102131.38;5031689;28;20049;-42
2023/02/02 02:31:30;;;;;;;37.13;4.00;;;;;;;7.70;100.00;102135.03;5029831;28;20132;-42
2023/02/02 02:33:59;;;;;;;38.15;4.70;;;;;;;7.70;100.00;102137.69;5034680;28;20033;-41
2023/02/02 02:36:44;;;;;;;39.20;4.18;;;;;;;7.73;100.00;102133.06;5030864;28;20041;-41
2023/02/02 02:39:19;;;;;;;41.30;4.32;;;;;;;7.73;100.00;102127.72;5013935;28;20105;-40
2023/02/02 02:41:51;;;;;;;42.08;3.50;;;;;;;7.74;100.00;102126.72;5025002;28;20143;-41
2023/02/02 02:44:18;;;;;;;42.22;4.88;;;;;;;7.77;100.00;102134.50;5032114;28;20119;-41
2023/02/02 02:46:44;;;;;;;41.90;4.70;;;;;;;7.77;100.00;102142.56;5032877;28;20036;-40
2023/02/02 02:49:11;;;;;;;51.38;4.93;;;;;;;7.74;100.00;102141.00;5018830;28;20409;-41
2023/02/02 02:51:42;;;;;;;45.95;4.35;;;;;;;7.75;100.00;102131.13;5014571;28;20121;-41
2023/02/02 02:54:07;;;;;;;47.05;4.55;;;;;;;7.74;100.00;102118.69;5023154;28;20034;-41
2023/02/02 02:56:51;;;;;;;42.90;4.78;;;;;;;7.70;100.00;102124.31;5015623;28;20164;-40
2023/02/02 02:59:28;;;;;;;39.17;4.32;;;;;;;7.71;100.00;102125.16;5021619;28;20041;-42
2023/02/02 03:02:08;;;;;;;47.92;3.90;;;;;;;7.70;100.00;102124.31;5029453;28;20041;-40
2023/02/02 03:04:48;;;;;;;33.83;3.83;;;;;;;7.74;100.00;102122.22;5028101;28;20440;-41
2023/02/02 03:07:38;;;;;;;42.20;4.25;;;;;;;7.73;100.00;102122.34;5017557;28;20034;-42
2023/02/02 03:10:05;;;;;;;39.17;4.07;;;;;;;7.71;100.00;102122.47;5022960;28;20045;-40
2023/02/02 03:12:30;;;;;;;31.35;4.90;;;;;;;7.70;100.00;102129.66;5019129;28;20032;-42
2023/02/02 03:14:56;;;;;;;29.48;3.78;;;;;;;7.69;100.00;102132.50;5033570;28;20033;-41
2023/02/02 03:17:21;;;;;;;52.90;5.18;;;;;;;7.72;100.00;102139.41;5026581;28;20049;-41
2023/02/02 03:19:47;;;;;;;30.40;3.60;;;;;;;7.71;100.00;102130.50;5030159;28;20033;-40
2023/02/02 03:22:12;;;;;;;38.63;3.55;;;;;;;7.72;100.00;102131.38;5016641;28;20492;-39
2023/02/02 03:24:37;;;;;;;51.42;4.25;;;;;;;7.70;100.00;102139.53;5031180;28;20057;-40
2023/02/02 03:27:03;;;;;;;35.60;4.38;;;;;;;7.73;100.00;102138.44;5025853;28;20022;-40
2023/02/02 03:29:28;;;;;;;44.13;4.35;;;;;;;7.72;100.00;102153.66;5025495;28;20022;-39
2023/02/02 03:31:54;;;;;;;41.85;6.05;;;;;;;7.73;100.00;102143.78;5031258;28;20385;-40
2023/02/02 03:34:19;;;;;;;42.33;4.78;;;;;;;7.74;100.00;102150.84;5018431;28;20124;-40
2023/02/02 03:36:44;;;;;;;43.67;3.90;;;;;;;7.71;100.00;102141.22;5015845;28;20049;-40
2023/02/02 03:39:10;;;;;;;38.97;4.57;;;;;;;7.70;100.00;102140.38;5014565;28;20025;-40
2023/02/02 03:41:35;;;;;;;40.97;4.68;;;;;;;7.76;100.00;102154.25;5023665;28;20029;-41
2023/02/02 03:44:00;;;;;;;39.05;3.70;;;;;;;7.72;100.00;102156.34;5031580;28;20025;-40
2023/02/02 03:46:26;;;;;;;48.42;4.20;;;;;;;7.73;100.00;102155.34;5032576;28;20036;-40
2023/02/02 03:48:51;;;;;;;39.15;4.55;;;;;;;7.74;100.00;102161.56;5031410;28;20041;-40
2023/02/02 03:51:17;;;;;;;42.70;4.65;;;;;;;7.73;100.00;102170.59;5032635;28;20619;-40
2023/02/02 03:53:48;;;;;;;35.65;3.35;;;;;;;7.74;100.00;102162.44;5028263;28;20088;-41
2023/02/02 03:56:14;;;;;;;42.30;4.20;;;;;;;7.72;100.00;102168.91;5013641;28;20539;-41
2023/02/02 03:58:40;;;;;;;34.88;3.83;;;;;;;7.73;100.00;102167.91;5013697;28;20471;-42
2023/02/02 04:01:09;;;;;;;43.88;4.25;;;;;;;7.73;100.00;102162.53;5015809;28;20084;-42
2023/02/02 04:03:34;;;;;;;42.15;4.90;;;;;;;7.72;100.00;102152.81;5032754;28;20400;-41
2023/02/02 04:06:00;;;;;;;41.40;3.65;;;;;;;7.69;100.00;102154.78;5032660;28;20108;-41
2023/02/02 04:08:25;;;;;;;44.88;5.60;;;;;;;7.71;100.00;102157.31;5028587;28;20041;-41
2023/02/02 04:10:51;;;;;;;29.73;3.97;;;;;;;7.73;100.00;102154.50;5031912;28;20404;-42
2023/02/02 04:13:16;;;;;;;36.00;4.43;;;;;;;7.72;100.00;102152.81;5027970;28;20120;-40
2023/02/02 04:15:41;;;;;;;38.30;5.32;;;;;;;7.72;100.00;102150.13;5012879;28;20113;-40
2023/02/02 04:18:07;;;;;;;31.45;3.83;;;;;;;7.69;100.00;102154.78;5012981;28;20453;-40
2023/02/02 04:20:32;;;;;;;44.88;3.40;;;;;;;7.70;100.00;102161.81;5025370;28;20021;-42
2023/02/02 04:22:57;;;;;;;34.05;3.63;;;;;;;7.75;100.00;102160.59;5019340;28;20026;-41
2023/02/02 04:25:23;;;;;;;22.85;3.50;;;;;;;7.75;100.00;102145.34;5032657;28;20099;-42
2023/02/02 04:27:48;;;;;;;40.95;3.50;;;;;;;7.74;100.00;102146.34;5030969;28;20029;-40
2023/02/02 04:30:14;;;;;;;20.67;3.45;;;;;;;7.76;100.00;102154.25;5018141;28;20424;-41
2023/02/02 04:32:39;;;;;;;33.67;3.67;;;;;;;7.74;100.00;102162.44;5024529;28;20139;-41
2023/02/02 04:35:05;;;;;;;38.97;4.55;;;;;;;7.73;100.00;102166.06;5034173;28;20029;-40
2023/02/02 04:37:31;;;;;;;44.65;4.93;;;;;;;7.79;100.00;102175.41;5031828;28;20033;-41
2023/02/02 04:39:56;;;;;;;35.88;4.35;;;;;;;7.77;100.00;102175.56;5019442;28;20030;-41
2023/02/02 04:42:21;;;;;;;52.63;4.32;;;;;;;7.76;100.00;102176.53;5020942;28;20064;-40
2023/02/02 04:44:47;;;;;;;49.35;5.07;;;;;;;7.77;100.00;102174.72;5032578;28;20061;-41
2023/02/02 04:47:12;;;;;;;34.33;3.13;;;;;;;7.78;100.00;102168.38;5033014;28;20033;-41
2023/02/02 04:49:37;;;;;;;34.75;4.00;;;;;;;7.79;100.00;102170.06;5032801;28;20025;-39
2023/02/02 04:52:03;;;;;;;32.72;3.60;;;;;;;7.80;100.00;102158.38;5032457;28;20497;-41
2023/02/02 04:54:28;;;;;;;36.25;4.32;;;;;;;7.83;100.00;102160.78;5031348;28;20473;-41
2023/02/02 04:56:54;;;;;;;22.95;4.10;;;;;;;7.80;100.00;102161.91;5030631;28;20354;-40
2023/02/02 04:59:19;;;;;;;28.42;4.22;;;;;;;7.79;100.00;102164.69;5027292;28;20022;-41
2023/02/02 05:01:44;;;;;;;42.85;4.00;;;;;;;7.79;100.00;102170.06;5017631;28;20480;-41
2023/02/02 05:04:10;;;;;;;36.78;4.55;;;;;;;7.74;100.00;102166.91;5019517;28;20037;-39
2023/02/02 05:06:35;;;;;;;39.78;4.15;;;;;;;7.74;100.00;102169.59;5012607;28;20022;-40
2023/02/02 05:09:01;;;;;;;34.45;3.90;;;;;;;7.73;100.00;102170.59;5013359;28;20091;-41
2023/02/02 05:11:26;;;;;;;27.25;3.85;;;;;;;7.69;100.00;102170.84;5010849;28;20041;-40
2023/02/02 05:13:53;;;;;;;30.00;3.85;;;;;;;7.73;100.00;102175.94;5014935;28;20030;-41
2023/02/02 05:16:19;;;;;;;40.30;3.70;;;;;;;7.70;100.00;102172.53;5029176;28;20038;-41
2023/02/02 05:18:49;;;;;;;31.88;4.13;;;;;;;7.68;100.00;102173.66;5028885;28;20038;-40
2023/02/02 05:21:15;;;;;;;38.20;3.92;;;;;;;7.68;100.00;102171.81;5031346;28;20024;-40
2023/02/02 05:23:40;;;;;;;30.02;3.65;;;;;;;7.70;100.00;102169.84;5030340;28;20030;-40
2023/02/02 05:26:05;;;;;;;34.92;3.22;;;;;;;7.73;100.00;102181.31;5035419;28;20033;-40
2023/02/02 05:28:31;;;;;;;32.70;4.00;;;;;;;7.73;100.00;102178.63;5034775;28;20026;-40
2023/02/02 05:30:56;;;;;;;40.15;3.30;;;;;;;7.72;100.00;102174.25;5017333;28;20061;-40
2023/02/02 05:33:21;;;;;;;33.60;3.55;;;;;;;7.69;100.00;102176.22;5015600;28;20092;-39
2023/02/02 05:35:48;;;;;;;39.15;4.93;;;;;;;7.71;100.00;102176.06;5016973;28;20034;-40
2023/02/02 05:38:14;;;;;;;27.95;3.50;;;;;;;7.70;100.00;102182.41;5031792;28;20087;-40
2023/02/02 05:40:40;;;;;;;36.95;4.20;;;;;;;7.69;100.00;102186.94;5023958;28;20038;-41
2023/02/02 05:43:05;;;;;;;47.40;6.13;;;;;;;7.67;100.00;102188.03;5030437;28;20531;-40
2023/02/02 05:45:31;;;;;;;40.53;4.53;;;;;;;7.66;100.00;102181.84;5030778;28;20025;-40
2023/02/02 05:47:57;;;;;;;38.30;3.67;;;;;;;7.64;100.00;102193.66;5030472;28;20072;-41
2023/02/02 05:50:22;;;;;;;43.83;4.47;;;;;;;7.63;100.00;102197.31;5025017;28;20033;-41
2023/02/02 05:52:48;;;;;;;44.40;4.65;;;;;;;7.64;100.00;102193.66;5022598;28;20040;-41
2023/02/02 05:55:13;;;;;;;45.97;4.55;;;;;;;7.63;100.00;102187.44;5028585;28;20033;-40
2023/02/02 05:57:39;;;;;;;49.35;4.15;;;;;;;7.61;100.00;102192.09;5033284;28;20036;-41
2023/02/02 06:00:05;;;;;;;38.85;4.80;;;;;;;7.63;100.00;102184.75;5019951;28;20032;-41
2023/02/02 06:02:30;;;;;;;37.95;4.07;;;;;;;7.60;100.00;102203.78;5016168;28;20092;-41
2023/02/02 06:04:56;;;;;;;31.30;3.58;;;;;;;7.62;100.00;102199.13;5033270;28;20113;-41
2023/02/02 06:07:21;;;;;;;37.92;4.25;;;;;;;7.62;100.00;102196.47;5028940;28;20026;-40
2023/02/02 06:09:46;;;;;;;34.60;3.85;;;;;;;7.63;100.00;102203.50;5015615;28;20052;-41
2023/02/02 06:12:12;;;;;;;34.88;3.55;;;;;;;7.64;100.00;102199.88;5018142;28;20362;-39
2023/02/02 06:14:37;;;;;;;45.30;3.65;;;;;;;7.65;100.00;102206.91;5018036;28;20056;-41
2023/02/02 06:17:02;;;;;;;43.40;4.13;;;;;;;7.64;100.00;102207.91;5020346;28;20084;-41
2023/02/02 06:19:28;;;;;;;34.08;4.63;;;;;;;7.66;100.00;102207.75;5020974;28;20064;-41
2023/02/02 06:21:53;;;;;;;33.53;4.10;;;;;;;7.66;100.00;102214.00;5028319;28;20073;-42
2023/02/02 06:24:18;;;;;;;36.28;3.97;;;;;;;7.67;100.00;102228.22;5017953;28;20030;-41
2023/02/02 06:26:44;;;;;;;31.48;3.63;;;;;;;7.66;100.00;102234.53;5032534;28;20044;-41
2023/02/02 06:29:11;;;;;;;35.50;4.57;;;;;;;7.66;100.00;102239.91;5026946;28;20034;-40
2023/02/02 06:31:37;;;;;;;35.13;4.72;;;;;;;7.69;100.00;102248.56;5024722;28;20039;-41
2023/02/02 06:34:02;;;;;;;33.45;3.65;;;;;;;7.69;100.00;102261.97;5024985;28;20124;-40
2023/02/02 06:36:28;;;;;;;32.15;3.97;;;;;;;7.64;100.00;102256.13;5017292;28;20083;-41
2023/02/02 06:38:55;;;;;;;43.22;3.67;;;;;;;7.67;100.00;102237.13;5014845;28;20595;-41
2023/02/02 06:41:20;;;;;;;33.65;4.88;;;;;;;7.66;100.00;102243.47;5031678;28;20025;-41
2023/02/02 06:43:46;;;;;;;35.97;5.05;;;;;;;7.67;100.00;102242.47;5029889;28;20049;-42
2023/02/02 06:46:12;;;;;;;31.88;4.22;;;;;;;7.67;100.00;102233.59;5031744;28;20033;-41
2023/02/02 06:48:37;;;;;;;36.13;4.85;;;;;;;7.65;100.00;102231.03;5032695;28;20033;-40
2023/02/02 06:51:04;;;;;;;46.65;4.13;;;;;;;7.66;100.00;102235.44;5031559;28;20116;-42
2023/02/02 06:53:30;;;;;;;28.00;3.35;;;;;;;7.65;100.00;102228.34;5031462;28;20045;-40
2023/02/02 06:55:57;;;;;;;30.98;3.85;;;;;;;7.63;100.00;102222.25;5030429;28;20087;-43
2023/02/02 06:58:22;;;;;;;43.47;4.57;;;;;;;7.60;100.00;102219.00;5030909;28;20129;-42
2023/02/02 07:00:48;;;;;;;38.25;4.63;;;;;;;7.59;100.00;102228.88;5032214;28;20026;-40
2023/02/02 07:03:14;;;;;;;24.25;3.42;;;;;;;7.58;100.00;102237.91;5032514;28;20109;-41
2023/02/02 07:05:40;;;;;;;38.33;5.32;;;;;;;7.61;100.00;102243.00;5031520;28;20041;-42
2023/02/02 07:08:05;;;;;;;45.42;3.70;;;;;;;7.66;100.00;102245.28;5029231;28;20079;-40
2023/02/02 07:10:31;;;;;;;50.17;4.63;;;;;;;7.59;100.00;102244.09;5029858;28;20045;-41
2023/02/02 07:12:56;;;;;;;32.75;3.95;;;;;;;7.60;100.00;102249.31;5030614;28;20542;-40
2023/02/02 07:15:21;;;;;;;30.88;3.53;;;;;;;7.56;100.00;102247.88;5029975;28;20084;-40
2023/02/02 07:17:46;;;;;;;37.85;3.97;;;;;;;7.56;100.00;102261.28;5026752;28;20040;-40
2023/02/02 07:20:12;;;;;;;40.47;3.55;;;;;;;7.56;100.00;102257.75;5028263;28;20025;-41
2023/02/02 07:22:38;;;;;;;36.08;4.07;;;;;;;7.55;100.00;102270.28;5029394;28;20033;-43
2023/02/02 07:25:04;;;;;;;35.97;4.30;;;;;;;7.55;100.00;102281.00;5029951;28;20033;-43
2023/02/02 07:27:30;;;;;;;31.88;3.38;;;;;;;7.54;100.00;102267.75;5029019;28;20029;-43
2023/02/02 07:29:55;;;;;;;36.63;3.97;;;;;;;7.51;100.00;102263.50;5027348;28;20558;-42
2023/02/02 07:32:20;;;;;;;37.60;3.92;;;;;;;7.51;100.00;102282.25;5029793;28;20041;-40
2023/02/02 07:34:46;;;;;;;33.72;3.33;;;;;;;7.51;100.00;102284.06;5027536;28;20037;-40
2023/02/02 07:37:11;;;;;;;46.92;3.80;;;;;;;7.50;100.00;102288.56;5025421;28;20034;-41
2023/02/02 07:39:39;;;;;;;37.50;4.95;;;;;;;7.48;100.00;102298.56;5024368;28;20045;-41
2023/02/02 07:42:04;;;;;;;43.47;4.63;;;;;;;7.45;100.00;102301.47;5027058;28;20021;-40
2023/02/02 07:44:30;;;;;;;35.92;3.85;;;;;;;7.44;100.00;102306.00;5026360;28;20816;-40
2023/02/02 07:46:55;;;;;;;31.95;4.05;;;;;;;7.46;100.00;102308.56;5024599;28;20049;-40
2023/02/02 07:49:20;;;;;;;35.83;5.07;;;;;;;7.48;100.00;102311.97;5023833;28;20054;-41
2023/02/02 07:51:48;;;;;;;28.58;4.07;;;;;;;7.52;100.00;102304.53;5024927;28;20027;-40
2023/02/02 07:54:14;;;;;;;29.40;4.07;;;;;;;7.55;100.00;102315.81;5025507;28;20037;-40
2023/02/02 07:56:39;;;;;;;49.40;4.20;;;;;;;7.54;100.00;102311.47;5026163;28;20117;-41
2023/02/02 07:59:04;;;;;;;36.70;3.42;;;;;;;7.52;100.00;102308.03;5028940;28;20108;-41
2023/02/02 08:01:30;;;;;;;31.13;3.50;;;;;;;7.54;100.00;102311.47;5026403;28;20053;-40
2023/02/02 08:03:59;;;;;;;43.90;3.85;;;;;;;7.54;100.00;102299.91;5030772;28;20034;-41
2023/02/02 08:06:30;;;;;;;36.42;3.63;;;;;;;7.58;100.00;102310.25;5025046;28;20037;-41
2023/02/02 08:08:56;;;;;;;43.15;3.83;;;;;;;7.63;100.00;102301.78;5028235;28;20034;-40
2023/02/02 08:11:23;;;;;;;35.78;4.32;;;;;;;7.71;100.00;102310.06;5027393;28;20037;-41
2023/02/02 08:13:53;;;;;;;26.63;3.58;;;;;;;7.70;100.00;102316.41;5025584;28;20120;-43
2023/02/02 08:16:19;;;;;;;34.83;3.08;;;;;;;7.65;100.00;102308.72;5024805;28;20033;-43
2023/02/02 08:18:44;;;;;;;26.02;3.30;;;;;;;7.66;100.00;102310.47;5026355;28;20036;-41
2023/02/02 08:21:10;;;;;;;31.73;3.20;;;;;;;7.74;100.00;102311.63;5026987;28;20042;-40
2023/02/02 08:23:37;;;;;;;35.55;3.53;;;;;;;7.74;100.00;102317.00;5028357;28;20039;-41
2023/02/02 08:26:13;;;;;;;34.03;3.63;;;;;;;7.82;100.00;102318.06;5022547;28;20235;-42
2023/02/02 08:28:40;;;;;;;30.85;2.75;;;;;;;7.86;100.00;102319.50;5023354;28;20120;-43
2023/02/02 08:31:14;;;;;;;40.47;3.67;;;;;;;7.96;100.00;102316.91;5023326;28;20041;-41
2023/02/02 08:33:40;;;;;;;38.85;4.35;;;;;;;8.00;100.00;102317.50;5020822;28;20042;-41
2023/02/02 08:36:12;;;;;;;36.40;4.40;;;;;;;8.01;100.00;102317.38;5021391;28;20034;-41
2023/02/02 08:38:37;;;;;;;36.10;3.55;;;;;;;7.99;100.00;102315.81;5025416;28;20026;-41
2023/02/02 08:41:04;;;;;;;38.13;4.05;;;;;;;7.97;100.00;102325.81;5023011;28;20759;-41
2023/02/02 08:43:29;;;;;;;40.83;3.80;;;;;;;7.92;100.00;102320.81;5024036;28;20038;-41
2023/02/02 08:45:55;;;;;;;24.95;2.80;;;;;;;7.96;100.00;102324.94;5022244;28;20107;-40
2023/02/02 08:48:20;;;;;;;35.80;3.25;;;;;;;7.95;100.00;102331.28;5023768;28;20021;-41
2023/02/02 08:50:52;;;;;;;35.30;3.78;;;;;;;7.99;100.00;102327.38;5022442;28;20033;-41
2023/02/02 08:53:17;;;;;;;25.40;3.60;;;;;;;8.01;100.00;102330.78;5021916;28;20064;-41
2023/02/02 08:55:42;;;;;;;24.23;3.17;;;;;;;8.01;100.00;102330.78;5022224;28;20033;-40
2023/02/02 08:58:08;;;;;;;43.03;4.22;;;;;;;8.02;100.00;102342.34;5019596;28;20026;-41
2023/02/02 09:00:34;;;;;;;37.00;4.65;;;;;;;8.02;100.00;102353.94;5024950;28;20476;-41
2023/02/02 09:02:59;;;;;;;40.13;3.55;;;;;;;8.03;100.00;102344.91;5029147;28;20025;-40
2023/02/02 09:05:25;;;;;;;28.75;3.05;;;;;;;8.01;100.00;102354.06;5027690;28;20049;-41
2023/02/02 09:07:50;;;;;;;32.05;3.05;;;;;;;8.01;100.00;102346.88;5022319;28;20049;-41
2023/02/02 09:10:15;;;;;;;30.70;3.47;;;;;;;7.99;100.00;102347.97;5022212;28;20108;-41
2023/02/02 09:12:41;;;;;;;24.75;3.45;;;;;;;7.99;100.00;102356.88;5023792;28;20030;-44
2023/02/02 09:15:06;;;;;;;47.83;3.80;;;;;;;8.04;100.00;102361.84;5023267;28;20052;-42
2023/02/02 09:17:32;;;;;;;37.65;3.40;;;;;;;8.09;100.00;102362.31;5024134;28;20060;-41
2023/02/02 09:19:57;;;;;;;41.30;3.92;;;;;;;8.18;100.00;102358.00;5024628;28;20485;-41
2023/02/02 09:22:22;;;;;;;36.67;3.67;;;;;;;8.19;100.00;102354.34;5022652;28;20029;-40
2023/02/02 09:24:48;;;;;;;39.75;4.75;;;;;;;8.26;100.00;102356.38;5021311;28;20032;-41
2023/02/02 09:27:13;;;;;;;28.67;3.92;;;;;;;8.35;100.00;102362.81;5020080;28;20079;-41
2023/02/02 09:29:38;;;;;;;25.05;3.00;;;;;;;8.41;100.00;102365.00;5022181;28;20030;-41
2023/02/02 09:32:04;;;;;;;34.72;3.40;;;;;;;8.56;100.00;102358.31;5022893;28;20128;-40
2023/02/02 09:34:29;;;;;;;28.50;3.20;;;;;;;8.67;100.00;102359.25;5023479;28;20049;-40
2023/02/02 09:36:55;;;;;;;42.55;3.65;;;;;;;8.81;100.00;102347.28;5023194;28;20025;-41
2023/02/02 09:39:20;;;;;;;37.28;3.15;;;;;;;8.92;100.00;102353.41;5021876;28;20026;-41
2023/02/02 09:41:54;;;;;;;28.00;3.20;;;;;;;8.89;100.00;102350.16;5022009;28;20064;-41
2023/02/02 09:44:33;;;;;;;31.42;3.97;;;;;;;8.87;100.00;102339.53;5022899;28;20039;-41
2023/02/02 09:47:20;;;;;;;39.63;4.90;;;;;;;8.84;100.00;102353.25;5022096;28;20119;-42
2023/02/02 09:50:03;;;;;;;38.00;3.42;;;;;;;8.89;100.00;102345.63;5021212;28;20041;-42
2023/02/02 09:52:39;;;;;;;30.00;3.05;;;;;;;8.95;100.00;102342.44;5021456;28;20083;-41
2023/02/02 09:55:34;;;;;;;33.05;3.28;;;;;;;8.95;100.00;102347.81;5022602;28;20042;-42
2023/02/02 09:58:06;;;;;;;44.40;4.30;;;;;;;9.00;100.00;102355.44;5021387;28;20075;-40
2023/02/02 10:00:36;;;;;;;42.03;3.35;;;;;;;8.95;100.00;102357.66;5021808;28;20053;-42
2023/02/02 10:03:08;;;;;;;28.05;2.92;;;;;;;9.01;100.00;102352.63;5016931;28;20030;-40
2023/02/02 10:06:21;;;;;;;34.10;3.25;;;;;;;8.90;100.00;102358.09;5020284;28;20556;-42
2023/02/02 10:08:54;;;;;;;30.38;3.22;;;;;;;8.87;100.00;102366.38;5008110;28;20489;-41
2023/02/02 10:11:36;;;;;;;31.85;2.75;;;;;;;8.93;100.00;102360.50;5027144;28;20044;-41
2023/02/02 10:14:09;;;;;;;24.00;3.03;;;;;;;9.01;100.00;102360.69;5025752;28;20433;-42
2023/02/02 10:16:35;;;;;;;24.80;2.88;;;;;;;9.35;100.00;102364.91;5026211;28;20029;-41
2023/02/02 10:19:04;;;;;;;34.13;3.00;;;;;;;9.83;100.00;102365.00;5024640;28;20446;-41
2023/02/02 10:21:56;;;;;;;29.90;3.20;;;;;;;9.86;100.00;102367.41;5024883;28;20063;-41
2023/02/02 10:24:24;;;;;;;36.55;3.75;;;;;;;9.99;100.00;102369.84;5023736;28;20044;-40
2023/02/02 10:26:55;;;;;;;33.15;2.90;;;;;;;9.85;100.00;102365.72;5026763;28;20115;-42
2023/02/02 10:29:23;;;;;;;32.35;3.80;;;;;;;9.71;100.00;102354.53;5022643;28;20035;-40
2023/02/02 10:32:03;;;;;;;23.23;2.75;;;;;;;9.71;100.00;102379.56;5026131;28;20068;-41
2023/02/02 10:34:36;;;;;;;34.20;3.05;;;;;;;9.63;100.00;102384.78;5025929;28;20123;-42
2023/02/02 10:37:37;;;;;;;26.20;3.58;;;;;;;9.61;100.00;102384.94;5024059;28;20184;-40
2023/02/02 10:40:40;;;;;;;39.78;4.82;;;;;;;9.59;100.00;102388.75;5026334;28;20048;-40
2023/02/02 10:43:45;;;;;;;33.42;4.15;;;;;;;9.70;100.00;102391.31;5026595;28;20041;-41
2023/02/02 10:46:23;;;;;;;33.58;3.83;;;;;;;9.70;100.00;102382.41;5026833;28;20068;-41
2023/02/02 10:48:51;;;;;;;24.85;3.63;;;;;;;9.66;100.00;102384.50;5023782;28;20041;-41
2023/02/02 10:51:19;;;;;;;32.03;3.28;;;;;;;9.55;100.00;102395.38;5027165;28;20029;-42
2023/02/02 10:53:50;;;;;;;39.30;3.55;;;;;;;9.45;100.00;102390.84;5025064;28;20030;-42
2023/02/02 10:56:17;;;;;;;36.03;3.30;;;;;;;9.53;100.00;102394.66;5025825;28;20319;-41
2023/02/02 10:58:43;;;;;;;32.90;4.07;;;;;;;9.45;100.00;102381.91;5025725;28;20060;-43
2023/02/02 11:01:10;;;;;;;40.40;3.45;;;;;;;9.48;100.00;102391.53;5027631;28;20029;-41
2023/02/02 11:03:36;;;;;;;39.78;4.05;;;;;;;9.45;100.00;102382.78;5027729;28;20037;-40
2023/02/02 11:08:55;;;;;;;33.42;3.88;;;;;;;9.36;100.00;102388.94;5027369;28;20087;-41
2023/02/02 11:11:25;;;;;;;40.42;3.90;;;;;;;9.28;100.00;102402.22;5025115;28;20029;-41
2023/02/02 11:13:54;;;;;;;43.45;3.92;;;;;;;9.30;100.00;102394.03;5026554;28;20384;-41
2023/02/02 11:16:22;;;;;;;41.28;4.20;;;;;;;9.25;100.00;102402.50;5025768;28;20125;-42
2023/02/02 11:18:47;;;;;;;29.40;3.10;;;;;;;9.24;100.00;102400.78;5024817;28;20108;-42
2023/02/02 11:21:17;;;;;;;33.25;3.05;;;;;;;9.22;100.00;102400.91;5026707;28;20555;-42
2023/02/02 11:23:58;;;;;;;48.15;3.90;;;;;;;9.07;100.00;102404.09;5023032;28;20036;-41
2023/02/02 11:26:24;;;;;;;36.28;3.58;;;;;;;9.01;100.00;102400.97;5024949;28;20045;-40
2023/02/02 11:28:52;;;;;;;37.50;3.35;;;;;;;9.01;100.00;102411.72;5025258;28;20084;-40
2023/02/02 11:31:33;;;;;;;57.53;3.92;;;;;;;9.00;100.00;102410.03;5025991;28;20036;-40
2023/02/02 11:34:26;;;;;;;35.88;4.03;;;;;;;8.90;100.00;102411.78;5026953;28;20079;-41
2023/02/02 11:37:09;;;;;;;30.90;2.95;;;;;;;8.80;100.00;102410.88;5026348;28;20045;-43